createdAt,value
2022-09-07T00:01:26.036Z,76871.84
2022-09-07T00:03:57.061Z,76888.31
2022-09-07T00:06:24.300Z,76878.03
2022-09-07T00:08:51.394Z,76878.03
2022-09-07T00:11:19.073Z,76880.09
2022-09-07T00:13:46.875Z,76871.84
2022-09-07T00:16:15.374Z,76863.63
2022-09-07T00:18:45.831Z,76863.63
2022-09-07T00:21:13.734Z,76873.91
2022-09-07T00:23:40.914Z,76884.19
2022-09-07T00:26:12.241Z,76892.41
2022-09-07T00:28:39.537Z,76908.88
2022-09-07T00:31:33.232Z,76910.91
2022-09-07T00:34:01.401Z,76894.47
2022-09-07T00:36:28.687Z,76892.41
2022-09-07T00:38:55.803Z,76912.97
2022-09-07T00:41:23.129Z,76904.75
2022-09-07T00:43:51.141Z,76919.16
2022-09-07T00:46:22.447Z,76912.97
2022-09-07T00:48:52.169Z,76912.97
2022-09-07T00:51:21.759Z,76912.97
2022-09-07T00:53:53.716Z,76908.88
2022-09-07T00:56:21.969Z,76904.75
2022-09-07T00:58:49.048Z,76908.88
2022-09-07T01:01:17.357Z,76925.31
2022-09-07T01:03:45.785Z,76910.91
2022-09-07T01:06:17.725Z,76908.88
2022-09-07T01:08:45.045Z,76917.09
2022-09-07T01:11:14.611Z,76904.75
2022-09-07T01:13:42.184Z,76908.88
2022-09-07T01:16:15.579Z,76902.69
2022-09-07T01:19:01.802Z,76892.41
2022-09-07T01:21:35.213Z,76908.88
2022-09-07T01:24:02.330Z,76908.88
2022-09-07T01:26:45.250Z,76917.09
2022-09-07T01:29:18.517Z,76915.03
2022-09-07T01:31:51.586Z,76910.91
2022-09-07T01:34:22.430Z,76927.38
2022-09-07T01:37:01.589Z,76929.41
2022-09-07T01:39:30.495Z,76933.53
2022-09-07T01:42:01.769Z,76939.69
2022-09-07T01:44:28.902Z,76947.94
2022-09-07T01:47:03.025Z,76937.66
2022-09-07T01:49:39.409Z,76943.81
2022-09-07T01:52:08.181Z,76939.69
2022-09-07T01:54:38.179Z,76949.97
2022-09-07T01:57:15.950Z,76958.19
2022-09-07T02:00:04.510Z,76966.44
2022-09-07T02:02:33.589Z,76970.53
2022-09-07T02:05:03.905Z,76978.75
2022-09-07T02:07:35.580Z,76972.59
2022-09-07T02:10:04.625Z,76976.72
2022-09-07T02:12:40.945Z,76954.09
2022-09-07T02:15:14.393Z,76974.66
2022-09-07T02:17:42.841Z,76993.16
2022-09-07T02:20:11.671Z,76995.22
2022-09-07T02:22:39.755Z,76989.03
2022-09-07T02:25:07.142Z,76982.88
2022-09-07T02:27:36.106Z,76970.53
2022-09-07T02:30:03.381Z,76974.66
2022-09-07T02:32:30.640Z,76982.88
2022-09-07T02:34:57.763Z,76984.94
2022-09-07T02:37:24.854Z,76982.88
2022-09-07T02:39:52.554Z,76987.00
2022-09-07T02:42:19.886Z,77005.50
2022-09-07T02:44:48.151Z,77011.66
2022-09-07T02:47:31.201Z,77019.88
2022-09-07T02:50:17.130Z,77024.00
2022-09-07T02:52:53.357Z,77017.81
2022-09-07T02:55:20.409Z,77024.00
2022-09-07T02:57:59.737Z,77034.28
2022-09-07T03:00:26.922Z,77015.78
2022-09-07T03:03:03.428Z,77011.66
2022-09-07T03:05:50.289Z,77003.44
2022-09-07T03:08:21.526Z,76995.22
2022-09-07T03:10:49.584Z,76991.09
2022-09-07T03:13:24.402Z,76991.09
2022-09-07T03:15:55.692Z,76987.00
2022-09-07T03:18:23.822Z,76991.09
2022-09-07T03:20:51.059Z,76984.94
2022-09-07T03:23:18.184Z,76987.00
2022-09-07T03:25:45.440Z,76989.03
2022-09-07T03:28:12.530Z,76989.03
2022-09-07T03:30:44.205Z,76991.09
2022-09-07T03:33:11.522Z,76995.22
2022-09-07T03:35:39.799Z,77007.53
2022-09-07T03:38:06.927Z,76995.22
2022-09-07T03:40:34.342Z,76991.09
2022-09-07T03:43:01.600Z,76995.22
2022-09-07T03:45:28.734Z,77011.66
2022-09-07T03:47:55.817Z,77005.50
2022-09-07T03:50:24.465Z,76999.31
2022-09-07T03:52:51.664Z,76989.03
2022-09-07T03:55:18.753Z,76991.09
2022-09-07T03:57:45.923Z,76995.22
2022-09-07T04:00:13.348Z,76982.88
2022-09-07T04:02:40.965Z,76987.00
2022-09-07T04:05:08.360Z,76972.59
2022-09-07T04:07:35.447Z,76966.44
2022-09-07T04:10:03.162Z,76956.16
2022-09-07T04:12:30.330Z,76958.19
2022-09-07T04:14:57.584Z,76949.97
2022-09-07T04:17:24.709Z,76952.03
2022-09-07T04:19:52.485Z,76945.88
2022-09-07T04:22:19.549Z,76943.81
2022-09-07T04:24:46.748Z,76941.75
2022-09-07T04:27:13.824Z,76929.41
2022-09-07T04:29:41.804Z,76925.31
2022-09-07T04:32:15.693Z,76917.09
2022-09-07T04:34:43.137Z,76908.88
2022-09-07T04:37:10.206Z,76896.53
2022-09-07T04:39:37.484Z,76888.31
2022-09-07T04:42:04.669Z,76867.75
2022-09-07T04:44:31.886Z,76859.53
2022-09-07T04:46:58.985Z,76855.41
2022-09-07T04:49:26.093Z,76849.25
2022-09-07T04:51:53.149Z,76838.97
2022-09-07T04:54:20.203Z,76822.50
2022-09-07T04:56:47.477Z,76834.84
2022-09-07T04:59:14.569Z,76822.50
2022-09-07T05:01:41.754Z,76818.41
2022-09-07T05:04:08.930Z,76824.56
2022-09-07T05:06:37.972Z,76822.50
2022-09-07T05:09:05.059Z,76801.97
2022-09-07T05:11:32.233Z,76801.97
2022-09-07T05:13:59.863Z,76781.41
2022-09-07T05:16:27.329Z,76773.19
2022-09-07T05:18:55.826Z,76769.06
2022-09-07T05:21:23.895Z,76732.06
2022-09-07T05:23:51.458Z,76730.00
2022-09-07T05:26:18.678Z,76723.84
2022-09-07T05:28:45.911Z,76707.41
2022-09-07T05:36:40.781Z,76662.16
2022-09-07T05:39:07.956Z,76639.56
2022-09-07T05:41:35.350Z,76658.06
2022-09-07T05:46:51.411Z,76645.72
2022-09-07T05:49:18.873Z,76621.06
2022-09-07T05:51:47.070Z,76621.06
2022-09-07T05:54:14.315Z,76629.28
2022-09-07T05:56:41.401Z,76631.34
2022-09-07T05:59:08.507Z,76608.72
2022-09-07T06:01:36.024Z,76596.38
2022-09-07T06:04:03.125Z,76584.06
2022-09-07T06:06:30.269Z,76579.94
2022-09-07T06:08:57.816Z,76567.59
2022-09-07T06:11:25.459Z,76553.22
2022-09-07T06:13:52.830Z,76538.81
2022-09-07T06:16:20.318Z,76542.94
2022-09-07T06:18:48.234Z,76540.88
2022-09-07T06:21:16.196Z,76526.50
2022-09-07T06:23:43.595Z,76524.44
2022-09-07T06:26:10.872Z,76518.28
2022-09-07T06:28:38.785Z,76493.59
2022-09-07T06:31:05.996Z,76491.53
2022-09-07T06:33:34.154Z,76493.59
2022-09-07T06:36:02.178Z,76460.72
2022-09-07T06:38:31.829Z,76440.16
2022-09-07T06:43:57.105Z,76409.31
2022-09-07T06:49:12.165Z,76423.72
2022-09-07T06:51:39.247Z,76399.03
2022-09-07T06:56:53.621Z,76372.31
2022-09-07T06:59:20.971Z,76341.50
2022-09-07T07:01:48.062Z,76335.31
2022-09-07T07:04:15.186Z,76333.28
2022-09-07T07:06:42.555Z,76316.81
2022-09-07T07:09:10.950Z,76290.09
2022-09-07T07:11:38.266Z,76279.81
2022-09-07T07:14:05.525Z,76288.03
2022-09-07T07:16:33.045Z,76263.38
2022-09-07T07:19:00.163Z,76275.72
2022-09-07T07:21:38.368Z,76246.94
2022-09-07T07:24:14.884Z,76234.59
2022-09-07T07:26:43.999Z,76195.56
2022-09-07T07:29:12.107Z,76207.88
2022-09-07T07:31:40.064Z,76189.38
2022-09-07T07:34:07.543Z,76205.81
2022-09-07T07:36:35.676Z,76187.31
2022-09-07T07:39:03.664Z,76205.81
2022-09-07T07:44:18.777Z,76185.28
2022-09-07T07:46:52.247Z,76195.56
2022-09-07T07:49:19.532Z,76156.50
2022-09-07T07:54:36.836Z,76103.06
2022-09-07T07:57:04.603Z,76061.94
2022-09-07T07:59:31.665Z,76066.06
2022-09-07T08:02:04.424Z,76094.84
2022-09-07T08:04:32.484Z,76057.84
2022-09-07T08:06:59.995Z,76045.50
2022-09-07T08:09:27.098Z,76068.13
2022-09-07T08:11:54.208Z,76008.50
2022-09-07T08:14:21.960Z,75918.06
2022-09-07T08:16:48.998Z,75823.53
2022-09-07T08:19:16.122Z,75677.63
2022-09-07T08:21:43.164Z,75529.66
2022-09-07T08:24:11.951Z,75396.06
2022-09-07T08:26:39.302Z,75307.72
2022-09-07T08:29:06.338Z,75141.28
2022-09-07T08:31:34.373Z,74925.53
2022-09-07T08:34:02.113Z,75001.53
2022-09-07T08:36:31.813Z,74972.78
2022-09-07T08:39:00.015Z,74954.28
2022-09-07T08:41:40.630Z,75052.91
2022-09-07T08:44:19.951Z,74826.91
2022-09-07T08:46:56.628Z,74615.28
2022-09-07T08:49:30.570Z,74216.72
2022-09-07T08:52:01.152Z,74270.16
2022-09-07T08:54:28.316Z,74111.97
2022-09-07T08:59:44.050Z,74467.34
2022-09-07T09:02:32.666Z,74399.56
2022-09-07T09:05:18.040Z,74218.78
2022-09-07T09:07:59.554Z,74263.97
2022-09-07T09:10:46.484Z,74198.25
2022-09-07T09:13:18.501Z,74159.22
2022-09-07T09:15:52.373Z,74243.44
2022-09-07T09:18:38.442Z,74348.22
2022-09-07T09:21:07.974Z,74309.16
2022-09-07T09:23:36.954Z,74253.72
2022-09-07T09:26:10.011Z,74360.53
2022-09-07T09:28:39.025Z,74750.88
2022-09-07T09:31:06.859Z,75196.75
2022-09-07T09:33:34.175Z,75359.09
2022-09-07T09:36:01.466Z,75433.06
2022-09-07T09:38:34.878Z,75239.91
2022-09-07T09:41:05.753Z,74775.53
2022-09-07T09:43:33.153Z,74393.41
2022-09-07T09:46:15.633Z,74187.97
2022-09-07T09:48:42.777Z,74159.22
2022-09-07T09:54:17.268Z,74479.69
2022-09-07T09:56:44.892Z,74348.22
2022-09-07T10:05:25.972Z,73838.78
2022-09-07T10:07:53.832Z,73653.91
2022-09-07T10:10:20.978Z,74485.84
2022-09-07T10:12:48.118Z,74718.00
2022-09-07T10:15:29.484Z,74469.41
2022-09-07T10:17:57.119Z,74348.22
2022-09-07T10:20:31.902Z,74319.44
2022-09-07T10:22:59.137Z,74315.34
2022-09-07T10:25:27.904Z,74167.44
2022-09-07T10:28:02.412Z,74200.28
2022-09-07T10:30:29.815Z,73883.97
2022-09-07T10:33:06.571Z,73881.91
2022-09-07T10:35:34.585Z,74130.44
2022-09-07T10:38:07.772Z,73990.78
2022-09-07T10:40:38.581Z,74220.84
2022-09-07T10:43:24.603Z,74227.00
2022-09-07T10:45:57.646Z,74537.22
2022-09-07T10:48:24.735Z,74919.34
2022-09-07T10:51:05.125Z,75170.03
2022-09-07T10:57:13.379Z,75157.72
2022-09-07T11:03:24.951Z,75202.91
2022-09-07T11:05:45.225Z,75137.16
2022-09-07T11:08:18.540Z,75276.91
2022-09-07T11:10:45.922Z,75451.56
2022-09-07T11:13:31.713Z,75509.09
2022-09-07T11:16:00.658Z,75453.63
2022-09-07T11:18:28.963Z,75502.94
2022-09-07T11:20:57.750Z,75502.94
2022-09-07T11:23:42.984Z,75502.94
2022-09-07T11:26:16.081Z,75533.75
2022-09-07T11:28:44.702Z,75613.91
2022-09-07T11:31:19.760Z,75572.81
2022-09-07T11:34:23.796Z,75511.16
2022-09-07T11:36:36.332Z,75410.47
2022-09-07T11:39:03.590Z,75322.09
2022-09-07T11:41:31.815Z,75252.22
2022-09-07T11:43:58.819Z,75026.19
2022-09-07T11:46:32.337Z,74767.31
2022-09-07T11:48:59.525Z,74479.69
2022-09-07T11:51:42.640Z,74561.88
2022-09-07T11:54:18.600Z,74769.38
2022-09-07T11:56:46.171Z,74999.50
2022-09-07T11:59:25.507Z,74976.88
2022-09-07T12:01:55.380Z,74639.94
2022-09-07T12:04:41.058Z,74309.16
2022-09-07T12:07:12.238Z,74364.63
2022-09-07T12:09:59.667Z,74504.34
2022-09-07T12:12:37.503Z,74541.31
2022-09-07T12:15:24.857Z,74736.50
2022-09-07T12:17:54.944Z,75083.75
2022-09-07T12:20:24.141Z,75071.41
2022-09-07T12:23:07.468Z,74915.25
2022-09-07T12:25:34.939Z,74607.06
2022-09-07T12:28:02.110Z,74561.88
2022-09-07T12:30:30.698Z,74442.72
2022-09-07T12:33:04.449Z,74524.88
2022-09-07T12:35:33.484Z,74463.25
2022-09-07T12:38:01.194Z,74631.72
2022-09-07T12:40:32.214Z,74582.41
2022-09-07T12:43:14.481Z,74422.16
2022-09-07T12:45:42.234Z,74508.44
2022-09-07T12:48:15.244Z,74368.75
2022-09-07T12:51:01.111Z,74863.88
2022-09-07T12:53:46.481Z,75096.06
2022-09-07T12:56:19.602Z,74956.34
2022-09-07T12:58:59.286Z,74726.22
2022-09-07T13:01:30.468Z,74498.19
2022-09-07T13:04:12.927Z,74393.41
2022-09-07T13:09:36.675Z,74789.91
2022-09-07T13:12:05.051Z,74878.25
2022-09-07T13:14:33.986Z,74993.31
2022-09-07T13:17:26.413Z,74746.78
2022-09-07T13:19:53.639Z,74376.97
2022-09-07T13:22:32.799Z,74746.78
2022-09-07T13:25:24.759Z,74584.47
2022-09-07T13:28:10.951Z,74381.06
2022-09-07T13:31:10.257Z,74196.19
2022-09-07T13:33:44.813Z,74159.22
2022-09-07T13:36:30.740Z,74040.06
2022-09-07T13:38:57.826Z,73937.38
2022-09-07T13:41:27.256Z,73976.41
2022-09-07T13:43:57.795Z,74216.72
2022-09-07T13:46:31.219Z,74342.03
2022-09-07T13:49:01.281Z,74489.97
2022-09-07T13:51:29.507Z,74489.97
2022-09-07T13:54:01.094Z,74261.94
2022-09-07T13:56:45.016Z,74331.78
2022-09-07T13:59:12.831Z,74752.94
2022-09-07T14:01:42.773Z,74676.91
2022-09-07T14:04:21.453Z,74820.75
2022-09-07T14:06:48.523Z,74625.56
2022-09-07T14:09:19.037Z,74666.66
2022-09-07T14:11:47.349Z,74697.47
2022-09-07T14:14:20.978Z,74557.75
2022-09-07T14:17:01.688Z,74298.91
2022-09-07T14:19:29.729Z,74442.72
2022-09-07T14:22:00.709Z,74539.25
2022-09-07T14:24:37.725Z,74524.88
2022-09-07T14:27:05.207Z,74450.94
2022-09-07T14:29:36.175Z,74413.94
2022-09-07T14:32:03.880Z,74360.53
2022-09-07T14:34:32.777Z,74274.25
2022-09-07T14:37:01.711Z,74368.75
2022-09-07T14:39:29.871Z,74590.63
2022-09-07T14:41:57.688Z,74633.78
2022-09-07T14:44:28.851Z,74785.81
2022-09-07T14:46:57.169Z,74890.59
2022-09-07T14:49:24.518Z,74927.56
2022-09-07T14:51:51.972Z,75223.47
2022-09-07T14:54:29.333Z,75264.56
2022-09-07T14:57:07.126Z,75285.09
2022-09-07T14:59:46.794Z,75285.09
2022-09-07T15:02:22.016Z,75204.97
2022-09-07T15:04:50.016Z,75161.81
2022-09-07T15:07:36.215Z,75252.22
2022-09-07T15:10:16.355Z,75260.44
2022-09-07T15:12:44.216Z,75233.75
2022-09-07T15:15:22.108Z,75207.03
2022-09-07T15:17:49.439Z,75354.97
2022-09-07T15:20:35.413Z,75318.00
2022-09-07T15:23:08.707Z,75379.63
2022-09-07T15:25:36.060Z,75548.16
2022-09-07T15:28:03.129Z,75597.47
2022-09-07T15:30:30.509Z,75679.69
2022-09-07T15:32:58.047Z,75626.25
2022-09-07T15:35:25.115Z,75613.91
2022-09-07T15:41:03.885Z,75729.00
2022-09-07T15:43:30.588Z,75718.72
2022-09-07T15:45:57.862Z,75731.06
2022-09-07T15:48:25.617Z,75729.00
2022-09-07T15:51:00.226Z,75768.03
2022-09-07T15:56:14.847Z,75790.66
2022-09-07T15:58:43.688Z,75778.31
2022-09-07T16:03:58.250Z,75802.97
2022-09-07T16:06:26.301Z,75807.09
2022-09-07T16:08:53.536Z,75839.97
2022-09-07T16:11:25.820Z,75868.75
2022-09-07T16:13:56.372Z,75876.97
2022-09-07T16:17:25.388Z,75883.13
2022-09-07T16:19:14.431Z,75905.75
2022-09-07T16:21:41.669Z,75928.34
2022-09-07T16:24:10.135Z,75942.75
2022-09-07T16:26:37.623Z,75955.06
2022-09-07T16:29:04.756Z,75979.75
2022-09-07T16:31:32.028Z,75987.97
2022-09-07T16:34:00.806Z,76010.56
2022-09-07T16:36:27.849Z,76029.06
2022-09-07T16:38:55.562Z,76041.41
2022-09-07T16:41:24.493Z,76045.50
2022-09-07T16:43:51.710Z,76070.16
2022-09-07T16:46:19.658Z,76078.41
2022-09-07T16:48:46.915Z,76086.63
2022-09-07T16:51:14.622Z,76098.94
2022-09-07T16:53:42.314Z,76094.84
2022-09-07T16:56:10.198Z,76094.84
2022-09-07T16:58:38.584Z,76098.94
2022-09-07T17:01:06.604Z,76115.38
2022-09-07T17:03:36.682Z,76127.72
2022-09-07T17:06:04.333Z,76148.28
2022-09-07T17:08:32.277Z,76160.59
2022-09-07T17:11:03.624Z,76185.28
2022-09-07T17:13:32.174Z,76201.72
2022-09-07T17:16:06.490Z,76209.94
2022-09-07T17:21:21.777Z,76230.50
2022-09-07T17:23:54.857Z,76238.72
2022-09-07T17:26:26.047Z,76251.03
2022-09-07T17:28:53.872Z,76275.72
2022-09-07T17:34:09.880Z,76279.81
2022-09-07T17:36:37.031Z,76304.50
2022-09-07T17:39:20.076Z,76312.72
2022-09-07T17:41:47.809Z,76325.03
2022-09-07T17:44:15.168Z,76337.38
2022-09-07T17:46:42.390Z,76333.28
2022-09-07T17:49:12.342Z,76341.50
2022-09-07T17:51:39.682Z,76343.53
2022-09-07T17:54:10.973Z,76362.03
2022-09-07T17:56:39.379Z,76362.03
2022-09-07T18:01:54.267Z,76384.66
2022-09-07T18:04:21.589Z,76394.94
2022-09-07T18:06:48.937Z,76392.88
2022-09-07T18:09:16.162Z,76403.16
2022-09-07T18:11:47.130Z,76403.16
2022-09-07T18:14:15.210Z,76411.38
2022-09-07T18:16:42.934Z,76415.50
2022-09-07T18:19:10.797Z,76407.28
2022-09-07T18:21:38.063Z,76434.00
2022-09-07T18:24:07.457Z,76425.78
2022-09-07T18:26:35.574Z,76425.78
2022-09-07T18:29:04.791Z,76440.16
2022-09-07T18:31:34.031Z,76448.38
2022-09-07T18:34:02.160Z,76448.38
2022-09-07T18:36:29.380Z,76440.16
2022-09-07T18:38:56.415Z,76442.22
2022-09-07T18:41:24.877Z,76450.44
2022-09-07T18:43:52.795Z,76448.38
2022-09-07T18:46:20.800Z,76468.94
2022-09-07T18:48:47.894Z,76466.88
2022-09-07T18:51:15.099Z,76462.78
2022-09-07T18:53:42.226Z,76481.28
2022-09-07T18:56:19.290Z,76468.94
2022-09-07T18:58:46.666Z,76483.31
2022-09-07T19:01:14.630Z,76489.50
2022-09-07T19:03:42.776Z,76489.50
2022-09-07T19:06:13.064Z,76481.28
2022-09-07T19:08:41.329Z,76489.50
2022-09-07T19:11:08.370Z,76487.44
2022-09-07T19:13:35.765Z,76489.50
2022-09-07T19:16:21.063Z,76481.28
2022-09-07T19:18:49.032Z,76485.38
2022-09-07T19:21:17.088Z,76493.59
2022-09-07T19:23:44.175Z,76497.72
2022-09-07T19:26:11.306Z,76512.09
2022-09-07T19:28:38.906Z,76505.94
2022-09-07T19:31:06.444Z,76514.16
2022-09-07T19:33:35.115Z,76522.38
2022-09-07T19:36:05.827Z,76530.59
2022-09-07T19:38:33.082Z,76530.59
2022-09-07T19:41:00.579Z,76526.50
2022-09-07T19:43:31.946Z,76542.94
2022-09-07T19:45:59.955Z,76534.72
2022-09-07T19:48:27.401Z,76538.81
2022-09-07T19:50:54.514Z,76542.94
2022-09-07T19:53:21.611Z,76547.06
2022-09-07T19:55:48.754Z,76567.59
2022-09-07T19:58:16.087Z,76563.50
2022-09-07T20:00:43.187Z,76559.38
2022-09-07T20:03:10.721Z,76555.28
2022-09-07T20:05:38.588Z,76559.38
2022-09-07T20:08:05.890Z,76567.59
2022-09-07T20:10:34.304Z,76567.59
2022-09-07T20:13:02.094Z,76559.38
2022-09-07T20:15:30.754Z,76563.50
2022-09-07T20:17:57.800Z,76575.81
2022-09-07T20:20:25.219Z,76571.72
2022-09-07T20:22:52.351Z,76579.94
2022-09-07T20:25:19.597Z,76573.78
2022-09-07T20:27:46.614Z,76575.81
2022-09-07T20:30:13.796Z,76579.94
2022-09-07T20:32:41.011Z,76588.16
2022-09-07T20:35:08.256Z,76592.28
2022-09-07T20:37:35.688Z,76590.22
2022-09-07T20:40:02.950Z,76600.50
2022-09-07T20:42:30.349Z,76600.50
2022-09-07T20:44:57.563Z,76600.50
2022-09-07T20:47:24.684Z,76600.50
2022-09-07T20:49:52.238Z,76608.72
2022-09-07T20:52:19.779Z,76608.72
2022-09-07T20:54:46.945Z,76608.72
2022-09-07T20:57:14.204Z,76608.72
2022-09-07T20:59:41.323Z,76645.72
2022-09-07T21:02:11.411Z,76645.72
2022-09-07T21:04:38.869Z,76627.22
2022-09-07T21:07:07.115Z,76600.50
2022-09-07T21:09:34.264Z,76575.81
2022-09-07T21:12:01.478Z,76553.22
2022-09-07T21:14:28.886Z,76536.78
2022-09-07T21:16:56.705Z,76542.94
2022-09-07T21:19:23.745Z,76561.44
2022-09-07T21:21:50.841Z,76563.50
2022-09-07T21:24:18.959Z,76571.72
2022-09-07T21:26:46.254Z,76571.72
2022-09-07T21:29:15.209Z,76577.88
2022-09-07T21:31:42.287Z,76555.28
2022-09-07T21:34:10.748Z,76542.94
2022-09-07T21:36:38.678Z,76538.81
2022-09-07T21:39:05.966Z,76542.94
2022-09-07T21:41:33.676Z,76545.00
2022-09-07T21:44:01.448Z,76551.16
2022-09-07T21:46:30.472Z,76536.78
2022-09-07T21:48:58.052Z,76526.50
2022-09-07T21:51:25.447Z,76524.44
2022-09-07T21:53:56.343Z,76510.03
2022-09-07T21:56:23.584Z,76501.81
2022-09-07T21:58:55.174Z,76489.50
2022-09-07T22:01:22.791Z,76477.16
2022-09-07T22:03:53.311Z,76464.81
2022-09-07T22:06:20.364Z,76458.66
2022-09-07T22:08:47.397Z,76456.59
2022-09-07T22:11:15.757Z,76458.66
2022-09-07T22:13:43.530Z,76458.66
2022-09-07T22:16:12.610Z,76444.28
2022-09-07T22:18:42.735Z,76440.16
2022-09-07T22:21:10.796Z,76440.16
2022-09-07T22:23:38.588Z,76436.03
2022-09-07T22:26:06.081Z,76431.94
2022-09-07T22:28:33.587Z,76423.72
2022-09-07T22:31:11.011Z,76421.66
2022-09-07T22:33:38.432Z,76411.38
2022-09-07T22:36:11.786Z,76423.72
2022-09-07T22:38:38.920Z,76427.81
2022-09-07T22:41:09.596Z,76431.94
2022-09-07T22:43:36.834Z,76421.66
2022-09-07T22:46:04.132Z,76419.59
2022-09-07T22:48:31.355Z,76421.66
2022-09-07T22:51:01.390Z,76407.28
2022-09-07T22:53:29.358Z,76407.28
2022-09-07T22:55:57.044Z,76415.50
2022-09-07T22:58:24.198Z,76419.59
2022-09-07T23:00:51.371Z,76409.31
2022-09-07T23:03:18.683Z,76403.16
2022-09-07T23:05:46.925Z,76399.03
2022-09-07T23:08:14.110Z,76407.28
2022-09-07T23:10:41.152Z,76423.72
2022-09-07T23:13:16.539Z,76421.66
2022-09-07T23:15:44.012Z,76415.50
2022-09-07T23:18:18.168Z,76415.50
2022-09-07T23:20:45.323Z,76415.50
2022-09-07T23:23:13.353Z,76411.38
2022-09-07T23:25:40.889Z,76415.50
2022-09-07T23:28:09.838Z,76417.53
2022-09-07T23:30:40.044Z,76415.50
2022-09-07T23:33:07.226Z,76407.28
2022-09-07T23:35:35.225Z,76403.16
2022-09-07T23:38:02.515Z,76405.22
2022-09-07T23:40:30.507Z,76401.09
2022-09-07T23:42:57.973Z,76407.28
2022-09-07T23:45:25.459Z,76411.38
2022-09-07T23:47:52.695Z,76413.44
2022-09-07T23:50:19.934Z,76407.28
2022-09-07T23:52:47.242Z,76413.44
2022-09-07T23:55:14.423Z,76403.16
2022-09-07T23:57:41.433Z,76399.03
